Time;durP1;ratioP1;P1;durP2;ratioP2;P2;SDS_P1;SDS_P2;PMS_P1;PMS_P2;Temp;Humidity;BMP_temperature;BMP_pressure;BME280_temperature;BME280_humidity;BME280_pressure;Samples;Min_cycle;Max_cycle;Signal;HPM_P1;HPM_P2
2023/01/29 00:01:39;;;;;;;12.15;5.97;;;;;;;;;;4981642;28;20058;-72
2023/01/29 00:04:05;;;;;;;10.93;5.60;;;;;;;;;;4960865;28;20046;-68
2023/01/29 00:06:31;;;;;;;9.73;5.82;;;;;;;;;;4964527;28;20078;-71
2023/01/29 00:08:57;;;;;;;8.43;5.32;;;;;;;;;;4961692;28;20082;-68
2023/01/29 00:11:24;;;;;;;8.45;5.50;;;;;;;;;;4963488;28;20500;-67
2023/01/29 00:13:51;;;;;;;9.70;6.05;;;;;;;;;;4968731;28;20043;-69
2023/01/29 00:16:17;;;;;;;8.45;4.93;;;;;;;;;;4966048;28;20043;-69
2023/01/29 00:18:44;;;;;;;8.82;5.30;;;;;;;;;;4961998;28;20054;-68
2023/01/29 00:21:12;;;;;;;11.57;4.72;;;;;;;;;;4971769;28;20059;-71
2023/01/29 00:23:38;;;;;;;11.55;5.05;;;;;;;;;;4959344;28;20121;-69
2023/01/29 00:26:05;;;;;;;11.50;5.10;;;;;;;;;;4959339;28;20055;-68
2023/01/29 00:28:30;;;;;;;8.07;4.78;;;;;;;;;;4960584;28;20114;-71
2023/01/29 00:30:57;;;;;;;9.43;4.63;;;;;;;;;;4961365;28;20043;-72
2023/01/29 00:33:23;;;;;;;10.88;4.55;;;;;;;;;;4963040;28;20117;-68
2023/01/29 00:35:49;;;;;;;7.63;4.32;;;;;;;;;;4961441;28;20500;-69
2023/01/29 00:38:14;;;;;;;9.30;4.72;;;;;;;;;;4961236;28;20322;-71
2023/01/29 00:46:10;;;;;;;10.57;4.50;;;;;;;;;;4964684;28;20051;-68
2023/01/29 00:48:37;;;;;;;7.70;4.45;;;;;;;;;;4964838;28;20639;-68
2023/01/29 00:51:03;;;;;;;10.45;4.90;;;;;;;;;;4966328;28;20093;-69
2023/01/29 00:53:29;;;;;;;9.73;4.70;;;;;;;;;;4963854;28;20110;-67
2023/01/29 00:55:55;;;;;;;9.27;4.50;;;;;;;;;;4963463;28;20436;-67
2023/01/29 00:58:27;;;;;;;7.28;4.47;;;;;;;;;;4963179;28;20125;-70
2023/01/29 01:00:54;;;;;;;8.35;4.55;;;;;;;;;;4963303;28;20392;-69
2023/01/29 01:03:20;;;;;;;8.60;4.30;;;;;;;;;;4965451;28;20058;-68
2023/01/29 01:05:46;;;;;;;5.55;4.13;;;;;;;;;;4960547;28;20443;-69
2023/01/29 01:11:02;;;;;;;6.85;4.40;;;;;;;;;;4964154;28;20051;-68
2023/01/29 01:13:31;;;;;;;6.00;4.13;;;;;;;;;;4960144;28;20043;-68
2023/01/29 01:15:57;;;;;;;6.65;4.28;;;;;;;;;;4966244;28;20050;-70
2023/01/29 01:18:23;;;;;;;7.10;4.15;;;;;;;;;;4960512;28;20102;-71
2023/01/29 01:20:50;;;;;;;7.53;3.88;;;;;;;;;;4966719;28;20053;-69
2023/01/29 01:23:18;;;;;;;8.55;4.10;;;;;;;;;;4965661;28;20110;-68
2023/01/29 01:25:45;;;;;;;9.10;4.13;;;;;;;;;;4968347;28;20059;-66
2023/01/29 01:28:11;;;;;;;5.03;3.17;;;;;;;;;;4966796;28;20519;-70
2023/01/29 01:30:37;;;;;;;5.95;3.60;;;;;;;;;;4964219;28;20050;-68
2023/01/29 01:33:03;;;;;;;8.90;3.65;;;;;;;;;;4965797;28;20062;-72
2023/01/29 01:35:29;;;;;;;9.05;4.30;;;;;;;;;;4957702;28;20733;-70
2023/01/29 01:37:55;;;;;;;6.32;3.58;;;;;;;;;;4963560;28;20043;-68
2023/01/29 01:40:23;;;;;;;8.45;3.53;;;;;;;;;;4963137;28;20054;-70
2023/01/29 01:42:52;;;;;;;5.25;3.55;;;;;;;;;;4963311;28;20047;-69
2023/01/29 01:45:23;;;;;;;6.38;3.40;;;;;;;;;;4962163;28;20557;-68
2023/01/29 01:48:12;;;;;;;5.22;3.50;;;;;;;;;;4962758;28;20050;-66
2023/01/29 01:51:02;;;;;;;4.80;3.10;;;;;;;;;;4961891;28;20161;-67
2023/01/29 01:53:37;;;;;;;5.00;2.75;;;;;;;;;;4964783;28;20046;-69
2023/01/29 01:56:15;;;;;;;5.50;3.10;;;;;;;;;;4962410;28;20651;-69
2023/01/29 01:58:51;;;;;;;6.43;2.90;;;;;;;;;;4964269;28;20121;-68
2023/01/29 02:01:25;;;;;;;4.15;2.85;;;;;;;;;;4957864;28;20066;-69
2023/01/29 02:09:45;;;;;;;4.53;2.60;;;;;;;;;;4965310;28;20519;-70
2023/01/29 02:12:13;;;;;;;6.72;2.50;;;;;;;;;;4962384;28;20066;-69
2023/01/29 02:14:41;;;;;;;4.53;2.70;;;;;;;;;;4963994;28;20204;-72
2023/01/29 02:17:10;;;;;;;4.47;2.30;;;;;;;;;;4961922;28;20538;-69
2023/01/29 02:19:54;;;;;;;4.78;2.90;;;;;;;;;;4961356;28;20408;-70
2023/01/29 02:22:35;;;;;;;3.72;2.47;;;;;;;;;;4965737;28;20438;-71
2023/01/29 02:25:16;;;;;;;4.90;2.45;;;;;;;;;;4980904;28;20085;-66
2023/01/29 02:28:44;;;;;;;7.78;2.60;;;;;;;;;;4967952;28;20181;-67
2023/01/29 02:31:21;;;;;;;4.13;2.22;;;;;;;;;;4945904;28;20059;-68
2023/01/29 02:34:07;;;;;;;4.68;2.40;;;;;;;;;;4945028;28;20051;-68
2023/01/29 02:36:52;;;;;;;4.43;2.28;;;;;;;;;;4941238;28;20055;-67
2023/01/29 02:39:36;;;;;;;4.18;2.10;;;;;;;;;;4941664;28;20047;-70
2023/01/29 02:42:21;;;;;;;5.90;2.53;;;;;;;;;;4942582;28;20113;-71
2023/01/29 02:44:51;;;;;;;4.80;2.33;;;;;;;;;;4945307;28;20055;-68
2023/01/29 02:47:55;;;;;;;5.65;2.30;;;;;;;;;;4943588;28;20940;-70
2023/01/29 02:50:44;;;;;;;3.95;2.13;;;;;;;;;;4945003;28;20476;-68
2023/01/29 02:53:36;;;;;;;5.63;2.40;;;;;;;;;;4940618;28;20062;-70
2023/01/29 02:56:11;;;;;;;3.85;1.90;;;;;;;;;;4943209;28;20059;-67
2023/01/29 02:58:46;;;;;;;;;;;;;;;;;;4939831;28;20055;-68
2023/01/29 03:01:29;;;;;;;;;;;;;;;;;;4946585;28;20017;-69
2023/01/29 03:04:00;;;;;;;3.70;2.08;;;;;;;;;;4960168;28;19933;-71
2023/01/29 03:06:34;;;;;;;3.75;1.77;;;;;;;;;;4963325;28;20101;-70
2023/01/29 03:09:15;;;;;;;4.13;1.90;;;;;;;;;;4954774;28;20573;-69
2023/01/29 03:11:47;;;;;;;3.30;1.90;;;;;;;;;;4957703;28;20055;-67
2023/01/29 03:14:19;;;;;;;3.25;1.85;;;;;;;;;;4957500;28;20102;-68
2023/01/29 03:16:53;;;;;;;5.28;2.08;;;;;;;;;;4955835;28;20059;-69
2023/01/29 03:19:35;;;;;;;5.40;1.88;;;;;;;;;;4953869;28;20055;-68
2023/01/29 03:22:04;;;;;;;4.47;2.00;;;;;;;;;;4954925;28;20511;-70
2023/01/29 03:33:07;;;;;;;3.08;2.00;;;;;;;;;;4963637;28;20070;-71
2023/01/29 03:36:17;;;;;;;4.18;2.28;;;;;;;;;;4961890;28;20055;-70
2023/01/29 03:38:44;;;;;;;3.55;2.20;;;;;;;;;;4922403;29;20052;-70
2023/01/29 03:41:27;;;;;;;3.55;2.20;;;;;;;;;;4920649;29;20058;-67
2023/01/29 03:44:16;;;;;;;4.03;2.17;;;;;;;;;;4919800;29;20279;-71
2023/01/29 03:47:17;;;;;;;4.45;2.60;;;;;;;;;;4919347;29;20193;-68
2023/01/29 03:49:46;;;;;;;3.60;2.38;;;;;;;;;;4906750;29;20063;-69
2023/01/29 03:52:49;;;;;;;3.15;2.20;;;;;;;;;;4919847;29;20054;-68
2023/01/29 03:55:18;;;;;;;5.70;2.17;;;;;;;;;;4891048;29;20043;-68
2023/01/29 03:58:03;;;;;;;3.20;2.15;;;;;;;;;;4921629;29;20059;-70
2023/01/29 04:00:50;;;;;;;4.07;2.25;;;;;;;;;;4920424;29;20063;-69
2023/01/29 04:03:32;;;;;;;5.63;2.40;;;;;;;;;;4920716;29;20052;-69
2023/01/29 04:06:18;;;;;;;3.40;2.15;;;;;;;;;;4920495;29;20118;-70
2023/01/29 04:08:51;;;;;;;2.90;2.00;;;;;;;;;;4921618;29;20047;-67
2023/01/29 04:11:21;;;;;;;6.35;2.67;;;;;;;;;;4922642;29;20043;-69
2023/01/29 04:13:47;;;;;;;3.08;2.13;;;;;;;;;;4932672;28;20039;-69
2023/01/29 04:16:21;;;;;;;3.97;2.20;;;;;;;;;;4963862;28;20046;-71
2023/01/29 04:18:48;;;;;;;4.28;2.40;;;;;;;;;;4960572;28;20089;-68
2023/01/29 04:21:15;;;;;;;3.95;2.40;;;;;;;;;;4961675;28;20047;-68
2023/01/29 04:23:41;;;;;;;10.10;2.40;;;;;;;;;;4958993;28;20038;-67
2023/01/29 04:26:29;;;;;;;4.45;2.33;;;;;;;;;;4970774;28;20053;-70
2023/01/29 04:29:12;;;;;;;4.47;2.30;;;;;;;;;;4959040;28;20055;-66
2023/01/29 04:31:52;;;;;;;4.80;2.40;;;;;;;;;;4959946;28;20051;-69
2023/01/29 04:34:27;;;;;;;5.43;2.28;;;;;;;;;;4959021;28;20117;-67
2023/01/29 04:37:18;;;;;;;3.47;2.10;;;;;;;;;;4959362;28;20047;-68
2023/01/29 04:39:51;;;;;;;5.00;2.22;;;;;;;;;;4959437;28;20051;-69
2023/01/29 04:42:41;;;;;;;3.58;2.28;;;;;;;;;;4958507;28;20429;-67
2023/01/29 04:45:44;;;;;;;4.63;2.22;;;;;;;;;;4969529;28;20488;-70
2023/01/29 04:48:39;;;;;;;3.35;2.22;;;;;;;;;;4959949;28;20051;-68
2023/01/29 04:51:19;;;;;;;3.83;2.20;;;;;;;;;;4937921;28;20058;-68
2023/01/29 04:53:49;;;;;;;7.70;2.20;;;;;;;;;;4959426;28;20054;-70
2023/01/29 04:56:50;;;;;;;2.90;1.70;;;;;;;;;;4960235;28;20074;-68
2023/01/29 04:59:25;;;;;;;2.38;2.00;;;;;;;;;;4975230;28;20051;-68
2023/01/29 05:01:51;;;;;;;5.07;1.95;;;;;;;;;;4976230;28;20619;-71
2023/01/29 05:04:20;;;;;;;2.92;1.80;;;;;;;;;;4975781;28;20054;-69
2023/01/29 05:06:47;;;;;;;3.83;2.08;;;;;;;;;;4975659;28;20062;-69
2023/01/29 05:09:16;;;;;;;3.35;1.88;;;;;;;;;;4974442;28;20065;-70
2023/01/29 05:11:44;;;;;;;5.03;2.28;;;;;;;;;;4975289;28;20073;-69
2023/01/29 05:14:13;;;;;;;3.33;1.90;;;;;;;;;;4973737;28;20577;-70
2023/01/29 05:16:45;;;;;;;3.63;1.90;;;;;;;;;;4978474;28;20122;-70
2023/01/29 05:19:14;;;;;;;3.35;1.70;;;;;;;;;;4976554;28;20534;-68
2023/01/29 05:21:43;;;;;;;2.85;1.88;;;;;;;;;;4974866;28;20399;-68
2023/01/29 05:24:19;;;;;;;3.67;1.70;;;;;;;;;;4977318;28;20047;-70
2023/01/29 05:29:32;;;;;;;2.35;1.33;;;;;;;;;;4976826;28;20481;-69
2023/01/29 05:31:58;;;;;;;3.28;1.70;;;;;;;;;;4977394;28;20142;-70
2023/01/29 05:34:24;;;;;;;2.25;1.60;;;;;;;;;;4976627;28;20050;-69
2023/01/29 05:36:50;;;;;;;2.13;1.48;;;;;;;;;;4961828;28;20066;-67
2023/01/29 05:39:16;;;;;;;1.95;1.40;;;;;;;;;;4963101;28;20050;-69
2023/01/29 05:41:42;;;;;;;2.70;1.50;;;;;;;;;;4966921;28;20089;-71
2023/01/29 05:44:09;;;;;;;2.30;1.55;;;;;;;;;;4960103;28;20652;-67
2023/01/29 05:46:36;;;;;;;3.13;1.80;;;;;;;;;;4964040;28;20059;-69
2023/01/29 05:49:03;;;;;;;3.78;1.45;;;;;;;;;;4963518;28;20065;-72
2023/01/29 05:51:29;;;;;;;2.50;1.58;;;;;;;;;;4965852;28;20051;-70
2023/01/29 05:53:55;;;;;;;5.05;1.60;;;;;;;;;;4963815;28;20093;-67
2023/01/29 05:56:21;;;;;;;2.55;1.40;;;;;;;;;;4962607;28;20050;-68
2023/01/29 05:58:47;;;;;;;2.40;1.40;;;;;;;;;;4961831;28;20050;-69
2023/01/29 06:01:17;;;;;;;3.33;1.77;;;;;;;;;;4962597;28;20404;-69
2023/01/29 06:03:43;;;;;;;2.90;1.30;;;;;;;;;;4961075;28;20101;-69
2023/01/29 06:06:09;;;;;;;2.78;1.63;;;;;;;;;;4959807;28;20054;-68
2023/01/29 06:08:35;;;;;;;3.13;1.65;;;;;;;;;;4960068;28;20504;-69
2023/01/29 06:11:02;;;;;;;4.25;1.30;;;;;;;;;;4959526;28;20050;-70
2023/01/29 06:13:28;;;;;;;6.70;1.58;;;;;;;;;;4960084;28;20058;-68
2023/01/29 06:15:53;;;;;;;4.78;1.70;;;;;;;;;;4968253;28;20881;-68
2023/01/29 06:18:19;;;;;;;2.60;1.50;;;;;;;;;;4969558;28;20050;-66
2023/01/29 06:20:45;;;;;;;2.90;1.40;;;;;;;;;;4962792;28;20141;-69
2023/01/29 06:23:11;;;;;;;1.80;1.50;;;;;;;;;;4964057;28;20054;-67
2023/01/29 06:25:37;;;;;;;1.80;1.40;;;;;;;;;;4967598;28;20055;-69
2023/01/29 06:28:03;;;;;;;1.50;1.13;;;;;;;;;;4961600;28;20413;-71
2023/01/29 06:30:30;;;;;;;2.08;1.38;;;;;;;;;;4969140;28;20148;-69
2023/01/29 06:33:02;;;;;;;1.88;1.40;;;;;;;;;;4967641;28;20054;-69
2023/01/29 06:35:28;;;;;;;2.22;1.23;;;;;;;;;;4971500;28;20038;-68
2023/01/29 06:37:55;;;;;;;1.70;1.40;;;;;;;;;;4969481;28;20051;-69
2023/01/29 06:40:21;;;;;;;2.33;1.58;;;;;;;;;;4967792;28;20047;-69
2023/01/29 06:42:47;;;;;;;3.15;1.30;;;;;;;;;;4966947;28;20042;-67
2023/01/29 06:45:13;;;;;;;1.95;1.30;;;;;;;;;;4966539;28;20259;-67
2023/01/29 06:47:39;;;;;;;2.03;1.40;;;;;;;;;;4969622;28;20058;-68
2023/01/29 06:50:05;;;;;;;1.63;1.23;;;;;;;;;;4965980;28;20047;-68
2023/01/29 06:52:31;;;;;;;3.45;1.38;;;;;;;;;;4961755;28;20121;-68
2023/01/29 06:54:57;;;;;;;1.85;1.25;;;;;;;;;;4957943;28;20492;-67
2023/01/29 06:57:23;;;;;;;4.00;1.52;;;;;;;;;;4963262;28;20047;-68
2023/01/29 06:59:49;;;;;;;1.85;1.27;;;;;;;;;;4962203;28;20054;-67
2023/01/29 07:02:15;;;;;;;2.38;1.50;;;;;;;;;;4962097;28;20141;-67
2023/01/29 07:04:41;;;;;;;2.38;1.20;;;;;;;;;;4972147;28;20095;-65
2023/01/29 07:07:12;;;;;;;2.15;1.30;;;;;;;;;;4967003;28;20408;-68
2023/01/29 07:09:39;;;;;;;1.75;1.42;;;;;;;;;;4962533;28;20412;-66
2023/01/29 07:12:06;;;;;;;2.53;1.20;;;;;;;;;;4966372;28;20055;-67
2023/01/29 07:14:32;;;;;;;3.42;1.40;;;;;;;;;;4967883;28;20113;-69
2023/01/29 07:16:58;;;;;;;3.15;1.30;;;;;;;;;;4956806;28;20062;-67
2023/01/29 07:19:23;;;;;;;3.00;1.52;;;;;;;;;;4957107;28;20047;-67
2023/01/29 07:21:49;;;;;;;2.42;1.40;;;;;;;;;;4966240;28;20043;-66
2023/01/29 07:24:15;;;;;;;1.95;1.40;;;;;;;;;;4966448;28;20051;-68
2023/01/29 07:26:41;;;;;;;2.00;1.50;;;;;;;;;;4965995;28;20051;-68
2023/01/29 07:29:07;;;;;;;3.05;1.27;;;;;;;;;;4967392;28;20042;-67
2023/01/29 07:31:34;;;;;;;2.33;1.40;;;;;;;;;;4964513;28;20102;-66
2023/01/29 07:33:59;;;;;;;2.10;1.50;;;;;;;;;;4961108;28;20149;-69
2023/01/29 07:36:26;;;;;;;1.70;1.30;;;;;;;;;;4959867;28;20053;-69
2023/01/29 07:38:52;;;;;;;2.47;1.35;;;;;;;;;;4959593;28;20039;-68
2023/01/29 07:41:20;;;;;;;4.72;1.50;;;;;;;;;;4961483;28;20060;-69
2023/01/29 07:43:46;;;;;;;1.95;1.33;;;;;;;;;;4963975;28;20141;-68
2023/01/29 07:46:12;;;;;;;2.47;1.55;;;;;;;;;;4959938;28;20054;-67
2023/01/29 07:48:37;;;;;;;2.72;1.50;;;;;;;;;;4973193;28;20078;-68
2023/01/29 07:51:04;;;;;;;2.53;1.40;;;;;;;;;;4966125;28;20385;-67
2023/01/29 07:53:29;;;;;;;1.90;1.30;;;;;;;;;;4959143;28;20386;-69
2023/01/29 07:55:56;;;;;;;4.97;1.60;;;;;;;;;;4958791;28;20054;-67
2023/01/29 07:58:22;;;;;;;5.88;2.22;;;;;;;;;;4960987;28;20057;-68
2023/01/29 08:00:48;;;;;;;3.00;1.60;;;;;;;;;;4962032;28;20058;-69
2023/01/29 08:03:16;;;;;;;2.78;1.48;;;;;;;;;;4962370;28;20077;-68
2023/01/29 08:05:43;;;;;;;2.50;1.50;;;;;;;;;;4966950;28;20058;-69
2023/01/29 08:08:09;;;;;;;3.53;1.60;;;;;;;;;;4960731;28;20149;-68
2023/01/29 08:10:36;;;;;;;3.80;1.77;;;;;;;;;;4958668;28;20065;-68
2023/01/29 08:13:04;;;;;;;2.75;2.10;;;;;;;;;;4958514;28;20054;-67
2023/01/29 08:15:31;;;;;;;4.70;2.17;;;;;;;;;;4961580;28;20054;-68
2023/01/29 08:17:57;;;;;;;6.53;3.10;;;;;;;;;;4951451;28;20073;-70
2023/01/29 08:20:24;;;;;;;4.65;2.30;;;;;;;;;;4959398;28;20069;-69
2023/01/29 08:22:58;;;;;;;4.63;2.47;;;;;;;;;;4957163;28;20843;-69
2023/01/29 08:25:24;;;;;;;2.97;2.17;;;;;;;;;;4955793;28;20054;-70
2023/01/29 08:27:49;;;;;;;4.32;1.80;;;;;;;;;;4956840;28;20050;-70
2023/01/29 08:30:15;;;;;;;4.93;1.88;;;;;;;;;;4961628;28;20054;-72
2023/01/29 08:32:41;;;;;;;5.15;2.10;;;;;;;;;;4970099;28;20086;-70
2023/01/29 08:35:08;;;;;;;6.32;2.00;;;;;;;;;;4958733;28;20504;-70
2023/01/29 08:37:34;;;;;;;4.03;1.90;;;;;;;;;;4954247;28;20504;-70
2023/01/29 08:40:00;;;;;;;4.20;2.00;;;;;;;;;;4957336;28;20051;-68
2023/01/29 08:42:25;;;;;;;4.25;2.50;;;;;;;;;;4953719;28;20038;-68
2023/01/29 08:44:51;;;;;;;4.07;1.90;;;;;;;;;;4959383;28;20042;-70
2023/01/29 08:47:17;;;;;;;4.88;2.97;;;;;;;;;;4968789;28;20043;-71
2023/01/29 08:49:43;;;;;;;4.72;2.63;;;;;;;;;;4957768;28;20110;-69
2023/01/29 08:52:09;;;;;;;4.30;2.78;;;;;;;;;;4957029;28;20812;-70
2023/01/29 08:54:35;;;;;;;3.83;2.15;;;;;;;;;;4955769;28;20428;-68
2023/01/29 08:57:01;;;;;;;3.65;1.80;;;;;;;;;;4968761;28;20055;-68
2023/01/29 08:59:27;;;;;;;4.35;2.67;;;;;;;;;;4959560;28;20046;-70
2023/01/29 09:01:53;;;;;;;2.95;2.15;;;;;;;;;;4958167;28;20062;-72
2023/01/29 09:04:19;;;;;;;3.85;1.90;;;;;;;;;;4951126;28;20902;-72
2023/01/29 09:06:45;;;;;;;4.78;1.85;;;;;;;;;;4960272;28;20046;-69
2023/01/29 09:09:11;;;;;;;3.42;2.30;;;;;;;;;;4960487;28;20058;-70
2023/01/29 09:11:39;;;;;;;3.83;2.25;;;;;;;;;;4962324;28;20455;-71
2023/01/29 09:14:05;;;;;;;4.38;1.95;;;;;;;;;;4961144;28;20078;-71
2023/01/29 09:16:31;;;;;;;2.70;1.88;;;;;;;;;;4963074;28;20047;-71
2023/01/29 09:18:57;;;;;;;2.47;1.85;;;;;;;;;;4965294;28;20070;-71
2023/01/29 09:21:23;;;;;;;3.25;1.75;;;;;;;;;;4978252;28;20783;-69
2023/01/29 09:23:49;;;;;;;4.93;1.80;;;;;;;;;;4960418;28;20820;-73
2023/01/29 09:26:15;;;;;;;3.75;1.88;;;;;;;;;;4964157;28;20174;-71
2023/01/29 09:28:41;;;;;;;3.00;2.00;;;;;;;;;;4966243;28;20054;-72
2023/01/29 09:31:07;;;;;;;2.90;1.55;;;;;;;;;;4965393;28;20055;-69
2023/01/29 09:33:33;;;;;;;4.22;1.60;;;;;;;;;;4963959;28;20101;-67
2023/01/29 09:36:02;;;;;;;7.20;1.55;;;;;;;;;;4963844;28;20059;-66
2023/01/29 09:38:28;;;;;;;2.78;1.42;;;;;;;;;;4962758;28;21190;-68
2023/01/29 09:41:02;;;;;;;2.92;1.48;;;;;;;;;;4976321;28;20058;-68
2023/01/29 09:43:31;;;;;;;;;;;;;;;;;;4963457;28;20052;-70
2023/01/29 09:46:26;;;;;;;2.60;1.80;;;;;;;;;;4963384;28;19949;-70
2023/01/29 09:49:00;;;;;;;2.20;1.60;;;;;;;;;;4961896;28;20042;-69
2023/01/29 09:51:36;;;;;;;3.92;2.22;;;;;;;;;;4965374;28;20500;-72
2023/01/29 09:54:23;;;;;;;2.50;1.60;;;;;;;;;;4973489;28;20055;-67
2023/01/29 09:56:53;;;;;;;11.68;2.00;;;;;;;;;;4965551;28;20066;-69
2023/01/29 09:59:25;;;;;;;4.65;1.77;;;;;;;;;;4955274;28;20047;-69
2023/01/29 10:02:19;;;;;;;4.38;1.80;;;;;;;;;;4973322;28;20058;-71
2023/01/29 10:05:12;;;;;;;4.15;1.90;;;;;;;;;;4966059;28;20053;-68
2023/01/29 10:08:14;;;;;;;3.38;2.00;;;;;;;;;;4968263;28;20516;-67
2023/01/29 10:10:46;;;;;;;4.75;2.63;;;;;;;;;;4969192;28;20065;-72
2023/01/29 10:13:26;;;;;;;3.10;2.20;;;;;;;;;;4968880;28;20066;-71
2023/01/29 10:16:10;;;;;;;3.00;2.10;;;;;;;;;;4967332;28;20405;-71
2023/01/29 10:18:59;;;;;;;5.72;2.20;;;;;;;;;;4964913;28;20070;-69
2023/01/29 10:21:44;;;;;;;4.03;2.50;;;;;;;;;;4961493;28;20039;-70
2023/01/29 10:24:18;;;;;;;2.88;2.08;;;;;;;;;;4965604;28;20503;-69
2023/01/29 10:26:46;;;;;;;3.92;2.35;;;;;;;;;;4964176;28;20654;-73
2023/01/29 10:29:18;;;;;;;5.20;2.08;;;;;;;;;;4961715;28;20592;-70
2023/01/29 10:31:49;;;;;;;6.80;2.20;;;;;;;;;;4961843;28;20101;-70
2023/01/29 10:34:22;;;;;;;6.47;2.13;;;;;;;;;;4964491;28;20061;-71
2023/01/29 10:36:48;;;;;;;7.28;2.20;;;;;;;;;;4962990;28;20086;-69
2023/01/29 10:39:20;;;;;;;5.82;2.72;;;;;;;;;;4959924;28;20054;-71
2023/01/29 10:42:23;;;;;;;7.18;2.38;;;;;;;;;;4960554;28;20051;-69
2023/01/29 10:45:24;;;;;;;3.47;1.80;;;;;;;;;;4961809;28;20053;-70
2023/01/29 10:47:53;;;;;;;4.18;2.13;;;;;;;;;;4951527;28;20097;-72
2023/01/29 10:50:32;;;;;;;7.95;2.42;;;;;;;;;;4965815;28;20141;-72
2023/01/29 10:53:26;;;;;;;4.15;2.00;;;;;;;;;;4962478;28;20038;-69
2023/01/29 10:56:13;;;;;;;7.35;2.40;;;;;;;;;;4962815;28;20078;-71
2023/01/29 10:59:04;;;;;;;6.50;2.55;;;;;;;;;;4963042;28;21083;-72
2023/01/29 11:01:30;;;;;;;3.78;2.03;;;;;;;;;;4973383;28;20074;-69
2023/01/29 11:04:05;;;;;;;6.57;2.10;;;;;;;;;;4967887;28;20102;-70
2023/01/29 11:06:34;;;;;;;;;;;;;;;;;;4971061;28;20086;-73
2023/01/29 11:09:12;;;;;;;5.40;1.95;;;;;;;;;;4975399;28;20389;-73
2023/01/29 11:11:53;;;;;;;4.60;2.10;;;;;;;;;;4970906;28;20059;-69
2023/01/29 11:14:38;;;;;;;5.28;1.98;;;;;;;;;;4962237;28;20054;-66
2023/01/29 11:17:03;;;;;;;5.47;2.50;;;;;;;;;;4958456;28;20055;-70
2023/01/29 11:19:41;;;;;;;6.40;2.25;;;;;;;;;;4960938;28;20050;-71
2023/01/29 11:22:18;;;;;;;5.97;1.75;;;;;;;;;;4970405;28;20077;-69
2023/01/29 11:24:45;;;;;;;5.65;2.10;;;;;;;;;;4966040;28;20386;-70
2023/01/29 11:27:24;;;;;;;8.75;2.47;;;;;;;;;;4969438;28;20118;-69
2023/01/29 11:29:52;;;;;;;6.18;2.17;;;;;;;;;;4959693;28;20046;-68
2023/01/29 11:32:21;;;;;;;12.73;1.90;;;;;;;;;;4966102;28;20058;-72
2023/01/29 11:35:01;;;;;;;3.40;1.83;;;;;;;;;;4967332;28;20046;-69
2023/01/29 11:37:39;;;;;;;5.00;1.85;;;;;;;;;;4961484;28;20054;-70
2023/01/29 11:40:33;;;;;;;3.65;2.08;;;;;;;;;;4963472;28;20035;-67
2023/01/29 11:43:18;;;;;;;2.80;1.60;;;;;;;;;;4968947;28;20050;-73
2023/01/29 11:45:44;;;;;;;;;;;;;;;;;;4968149;28;20169;-72
2023/01/29 11:48:16;;;;;;;3.40;1.80;;;;;;;;;;4965379;28;19929;-69
2023/01/29 11:50:49;;;;;;;3.90;2.20;;;;;;;;;;4963450;28;20045;-72
2023/01/29 11:53:34;;;;;;;3.95;1.95;;;;;;;;;;4965930;28;20097;-68
2023/01/29 11:56:04;;;;;;;5.90;2.05;;;;;;;;;;4967511;28;20047;-69
2023/01/29 11:58:33;;;;;;;3.95;1.42;;;;;;;;;;4962305;28;20114;-68
2023/01/29 12:01:00;;;;;;;2.22;1.40;;;;;;;;;;4959875;28;20046;-70
2023/01/29 12:03:33;;;;;;;4.50;1.90;;;;;;;;;;4962706;28;20456;-68
2023/01/29 12:06:04;;;;;;;7.80;1.70;;;;;;;;;;4958894;28;20061;-68
2023/01/29 12:08:37;;;;;;;4.80;1.80;;;;;;;;;;4959464;28;20085;-73
2023/01/29 12:11:31;;;;;;;3.80;1.70;;;;;;;;;;4955602;28;20108;-72
2023/01/29 12:14:02;;;;;;;9.63;3.42;;;;;;;;;;4958783;28;20050;-69
2023/01/29 12:16:42;;;;;;;7.30;2.60;;;;;;;;;;4956258;28;20428;-73
2023/01/29 12:19:28;;;;;;;4.05;1.85;;;;;;;;;;4962449;28;20046;-70
2023/01/29 12:22:13;;;;;;;4.93;2.10;;;;;;;;;;4961737;28;20579;-72
2023/01/29 12:24:58;;;;;;;4.15;2.50;;;;;;;;;;4969948;28;20047;-72
2023/01/29 12:27:37;;;;;;;5.57;2.30;;;;;;;;;;4964597;28;20062;-73
2023/01/29 12:30:06;;;;;;;7.50;2.58;;;;;;;;;;4960514;28;20109;-71
2023/01/29 12:32:47;;;;;;;4.78;2.28;;;;;;;;;;4960746;28;20570;-74
2023/01/29 12:35:20;;;;;;;4.20;2.05;;;;;;;;;;4959652;28;20476;-72
2023/01/29 12:38:04;;;;;;;5.07;2.42;;;;;;;;;;4960597;28;20050;-71
2023/01/29 12:40:48;;;;;;;4.75;2.50;;;;;;;;;;4963976;28;20093;-74
2023/01/29 12:43:16;;;;;;;4.93;2.10;;;;;;;;;;4967223;28;20043;-71
2023/01/29 12:45:46;;;;;;;5.55;2.80;;;;;;;;;;4969851;28;20055;-70
2023/01/29 12:48:18;;;;;;;3.92;1.90;;;;;;;;;;4970724;28;20051;-71
2023/01/29 12:50:45;;;;;;;3.45;2.05;;;;;;;;;;4969428;28;20571;-72
2023/01/29 12:53:34;;;;;;;5.30;2.40;;;;;;;;;;4980048;28;20062;-72
2023/01/29 12:56:30;;;;;;;3.95;2.00;;;;;;;;;;4968110;28;20378;-72
2023/01/29 12:59:00;;;;;;;3.13;1.90;;;;;;;;;;4966866;28;20059;-74
2023/01/29 13:01:31;;;;;;;3.20;2.25;;;;;;;;;;4971294;28;20412;-71
2023/01/29 13:04:18;;;;;;;7.22;2.40;;;;;;;;;;4971474;28;20479;-71
2023/01/29 13:06:53;;;;;;;3.67;2.42;;;;;;;;;;4968584;28;20054;-71
2023/01/29 13:09:28;;;;;;;5.82;2.60;;;;;;;;;;4966891;28;20054;-71
2023/01/29 13:12:13;;;;;;;7.60;2.90;;;;;;;;;;4967406;28;20340;-69
2023/01/29 13:15:01;;;;;;;7.20;2.53;;;;;;;;;;4967038;28;20435;-74
2023/01/29 13:17:35;;;;;;;5.43;2.50;;;;;;;;;;4968831;28;20071;-72
2023/01/29 13:20:27;;;;;;;5.97;3.03;;;;;;;;;;4968035;28;20061;-73
2023/01/29 13:22:57;;;;;;;3.83;2.20;;;;;;;;;;4961926;28;20221;-69
2023/01/29 13:25:23;;;;;;;5.00;2.13;;;;;;;;;;4966912;28;20050;-71
2023/01/29 13:27:49;;;;;;;2.83;1.52;;;;;;;;;;4977419;28;20061;-71
2023/01/29 13:30:29;;;;;;;3.90;1.40;;;;;;;;;;4960337;28;21218;-71
2023/01/29 13:33:07;;;;;;;3.08;1.70;;;;;;;;;;4959201;28;20507;-70
2023/01/29 13:35:36;;;;;;;2.88;1.90;;;;;;;;;;4948744;28;20590;-76
2023/01/29 13:38:05;;;;;;;3.78;2.20;;;;;;;;;;4943686;28;20166;-69
2023/01/29 13:40:33;;;;;;;4.20;1.98;;;;;;;;;;4961468;28;20050;-72
2023/01/29 13:43:01;;;;;;;5.93;1.95;;;;;;;;;;4959051;28;20050;-71
2023/01/29 13:45:43;;;;;;;3.83;1.70;;;;;;;;;;4961937;28;20421;-68
2023/01/29 13:48:27;;;;;;;2.75;1.80;;;;;;;;;;4967493;28;20055;-73
2023/01/29 13:51:00;;;;;;;3.83;2.03;;;;;;;;;;4971745;28;20062;-67
2023/01/29 13:53:33;;;;;;;4.40;2.00;;;;;;;;;;4962223;28;20057;-74
2023/01/29 13:56:32;;;;;;;4.57;2.03;;;;;;;;;;4958529;28;20055;-69
2023/01/29 13:58:59;;;;;;;10.38;2.40;;;;;;;;;;4913206;29;20063;-72
2023/01/29 14:01:46;;;;;;;5.90;2.03;;;;;;;;;;4910417;29;20174;-72
2023/01/29 14:04:28;;;;;;;4.30;2.08;;;;;;;;;;4913197;29;20999;-69
2023/01/29 14:06:58;;;;;;;5.28;2.05;;;;;;;;;;4911387;29;20197;-71
2023/01/29 14:09:36;;;;;;;4.57;2.33;;;;;;;;;;4909158;29;20059;-72
2023/01/29 14:12:21;;;;;;;3.10;1.60;;;;;;;;;;4927294;29;20056;-72
2023/01/29 14:14:46;;;;;;;3.55;1.55;;;;;;;;;;4926065;29;20052;-75
2023/01/29 14:17:18;;;;;;;3.55;1.95;;;;;;;;;;4919138;29;20039;-68
2023/01/29 14:19:57;;;;;;;5.00;2.20;;;;;;;;;;4927270;29;20075;-74
2023/01/29 14:22:26;;;;;;;6.53;2.15;;;;;;;;;;4927026;29;20088;-69
2023/01/29 14:25:00;;;;;;;3.08;1.70;;;;;;;;;;4925653;29;20047;-72
2023/01/29 14:27:28;;;;;;;2.80;1.40;;;;;;;;;;4926560;29;20059;-71
2023/01/29 14:30:08;;;;;;;2.47;1.67;;;;;;;;;;4927998;29;20043;-75
2023/01/29 14:32:38;;;;;;;3.45;1.75;;;;;;;;;;4905246;29;20823;-70
2023/01/29 14:35:16;;;;;;;4.43;1.73;;;;;;;;;;4957299;28;20074;-72
2023/01/29 14:37:49;;;;;;;2.63;1.65;;;;;;;;;;4966528;28;20571;-69
2023/01/29 14:40:18;;;;;;;3.90;1.88;;;;;;;;;;4966306;28;20244;-71
2023/01/29 14:43:02;;;;;;;3.47;2.05;;;;;;;;;;4962732;28;20102;-74
2023/01/29 14:45:34;;;;;;;5.13;2.20;;;;;;;;;;4969676;28;20047;-72
2023/01/29 14:48:05;;;;;;;4.45;1.98;;;;;;;;;;4969521;28;20219;-71
2023/01/29 14:50:30;;;;;;;4.95;2.42;;;;;;;;;;4972642;28;20051;-71
2023/01/29 14:53:10;;;;;;;6.53;2.05;;;;;;;;;;4959421;28;20053;-71
2023/01/29 14:55:53;;;;;;;3.22;2.03;;;;;;;;;;4984193;28;20046;-73
2023/01/29 14:58:42;;;;;;;2.47;1.52;;;;;;;;;;4970910;28;20061;-69
2023/01/29 15:01:35;;;;;;;3.78;1.65;;;;;;;;;;4964590;28;20055;-69
2023/01/29 15:04:26;;;;;;;4.15;1.75;;;;;;;;;;4968145;28;20137;-70
2023/01/29 15:07:01;;;;;;;4.03;1.73;;;;;;;;;;4960419;28;20536;-70
2023/01/29 15:09:46;;;;;;;5.28;1.80;;;;;;;;;;4969299;28;20508;-72
2023/01/29 15:12:19;;;;;;;2.67;1.80;;;;;;;;;;4970594;28;20109;-67
2023/01/29 15:14:55;;;;;;;4.88;1.80;;;;;;;;;;4977329;28;20066;-69
2023/01/29 15:17:29;;;;;;;2.83;1.90;;;;;;;;;;4969129;28;20066;-72
2023/01/29 15:19:56;;;;;;;3.72;1.85;;;;;;;;;;4958138;28;20137;-71
2023/01/29 15:22:28;;;;;;;2.53;1.80;;;;;;;;;;4967541;28;20408;-69
2023/01/29 15:25:06;;;;;;;4.40;2.13;;;;;;;;;;4965394;28;20062;-75
2023/01/29 15:27:33;;;;;;;3.08;1.92;;;;;;;;;;4965293;28;20046;-68
2023/01/29 15:30:04;;;;;;;2.28;1.70;;;;;;;;;;4965140;28;20074;-74
2023/01/29 15:32:35;;;;;;;3.42;1.90;;;;;;;;;;4964797;28;20042;-68
2023/01/29 15:35:09;;;;;;;3.65;1.90;;;;;;;;;;4964380;28;20876;-68
2023/01/29 15:37:36;;;;;;;5.32;2.13;;;;;;;;;;4963502;28;20063;-67
2023/01/29 15:40:14;;;;;;;3.25;1.92;;;;;;;;;;4970226;28;20507;-68
2023/01/29 15:42:45;;;;;;;5.72;2.05;;;;;;;;;;4964565;28;20669;-74
2023/01/29 15:45:32;;;;;;;7.95;3.67;;;;;;;;;;4965388;28;20066;-72